LiveATC.Net - Listen to live air traffic control over the Internet!


ICAO: CYMJ  IATA: YMJ   Airport: Moose Jaw/Air Vice Marshal C.M. McEwen Airport
City: Moose Jaw   State/Province: Saskatchewan
Country: Canada   Continent: North America
CYMJ METAR Weather: CYMJ 222218Z 02008KT 15SM FEW160 OVC250 23/06 A2996 RMK AC2CS6 LAST OBS / NXT 231000 UTC SLP147
CYMJ Flight Activity (FlightAware)

CYMJ ATIS
Feed Status: DOWN
Last heard on: 2020-07-28 04:01:39 (56 days 23 hours 39 minutes ago)
Archive Access: CYMJ ATIS
FacilityFrequency
Moose Jaw ATIS131.300

CYMJ Gnd/Twr
Feed Status: DOWN
Last heard on: 2020-07-28 04:01:39 (56 days 23 hours 39 minutes ago)
Archive Access: CYMJ Gnd/Twr
FacilityFrequency
Moose Jaw Ground275.800
Moose Jaw Tower (Inner)295.600
Moose Jaw Tower (Outer)310.800

NOTICE

Unauthorized use prohibited. See LiveATC.net Terms of Service


Airport/ARTCC Code
Frequency Search
(e.g., 124.400, 128.75)
Site-wide search
 


Browse Feeds
Top 50 Feeds
Coverage Map
Bad Weather Areas

LiveATC FAQ
Offer LiveATC feed
Contact LiveATC.net
Press Inquiries

LiveATC on iPhone
LiveATC on Android

Windows Phone
Windows 8/10

LiveATC Mobile
(Mobile browser)

ATC Audio Archives
Interesting Recordings

LiveATC Forums


Home Page
About LiveATC.net
Make a Donation
Terms of Use
Privacy Policy

Canadian Air Freqs

AIRMETs/SIGMETs

FAA Airport Status
Nat'l Airspace Status
Arrival Demand Charts


Server Software By:
Icecast.org
Liquidsoap